Time;durP1;ratioP1;P1;durP2;ratioP2;P2;SDS_P1;SDS_P2;PMS_P1;PMS_P2;Temp;Humidity;BMP_temperature;BMP_pressure;BME280_temperature;BME280_humidity;BME280_pressure;Samples;Min_cycle;Max_cycle;Signal;HPM_P1;HPM_P2
2021/07/17 00:01:24;;;;;;;14.80;6.93;;;;;;;22.66;64.56;102031.63;6107956;28;20255;-63
2021/07/17 00:04:46;;;;;;;12.90;7.35;;;;;;;22.57;64.97;102033.75;6111884;28;21027;-62
2021/07/17 00:08:07;;;;;;;17.60;7.63;;;;;;;22.80;64.22;102030.16;6114950;28;20335;-63
2021/07/17 00:11:30;;;;;;;17.30;6.97;;;;;;;22.85;64.01;102032.59;6114972;28;20232;-64
2021/07/17 00:14:51;;;;;;;16.73;7.60;;;;;;;22.78;64.13;102033.81;6118708;28;20610;-62
2021/07/17 00:18:14;;;;;;;12.95;7.00;;;;;;;22.60;64.73;102028.31;6114087;28;20613;-62
2021/07/17 00:21:36;;;;;;;12.98;6.07;;;;;;;22.94;63.52;102032.22;6115646;28;20240;-62
2021/07/17 00:24:57;;;;;;;13.90;6.53;;;;;;;22.66;64.38;102027.19;6116580;28;20248;-62
2021/07/17 00:28:20;;;;;;;17.42;6.53;;;;;;;22.64;64.52;102033.50;6113418;28;20231;-62
2021/07/17 00:31:41;;;;;;;13.05;7.35;;;;;;;22.57;65.22;102028.44;6120793;28;20244;-63
2021/07/17 00:35:02;;;;;;;18.35;8.05;;;;;;;22.68;64.15;102032.44;6112858;28;20243;-63
2021/07/17 00:38:23;;;;;;;15.57;7.72;;;;;;;22.34;65.89;102036.44;6116876;28;20255;-63
2021/07/17 00:41:44;;;;;;;18.88;7.97;;;;;;;22.55;64.96;102030.28;6113053;28;20627;-63
2021/07/17 00:45:06;;;;;;;15.73;7.32;;;;;;;22.87;64.01;102036.06;6104175;28;20240;-64
2021/07/17 00:48:28;;;;;;;13.07;8.13;;;;;;;22.80;64.29;102038.13;6111761;28;20232;-63
2021/07/17 00:51:49;;;;;;;17.05;8.18;;;;;;;22.56;64.97;102036.44;6114640;28;20950;-63
2021/07/17 00:55:11;;;;;;;14.88;6.85;;;;;;;22.29;66.12;102049.03;6113945;28;20267;-64
2021/07/17 00:58:37;;;;;;;17.58;7.50;;;;;;;22.62;65.03;102041.50;6114750;28;20570;-63
2021/07/17 01:02:01;;;;;;;15.30;7.28;;;;;;;22.54;65.39;102036.50;6105559;28;20314;-63
2021/07/17 01:05:22;;;;;;;12.90;7.15;;;;;;;22.77;64.74;102034.72;6117675;28;20249;-62
2021/07/17 01:08:43;;;;;;;19.92;8.43;;;;;;;22.78;64.34;102037.31;6120993;28;20244;-63
2021/07/17 01:12:05;;;;;;;16.10;6.80;;;;;;;22.99;63.65;102046.19;6114958;28;20236;-63
2021/07/17 01:15:26;;;;;;;13.77;7.03;;;;;;;22.81;64.13;102037.16;6114604;28;20529;-63
2021/07/17 01:18:48;;;;;;;12.55;6.28;;;;;;;22.71;64.84;102035.84;6119101;28;20228;-63
2021/07/17 01:22:10;;;;;;;19.90;7.53;;;;;;;22.65;64.71;102041.41;6113718;28;20233;-63
2021/07/17 01:25:34;;;;;;;18.77;7.53;;;;;;;22.60;64.80;102044.25;6115060;28;20671;-63
2021/07/17 01:28:56;;;;;;;12.73;6.65;;;;;;;22.77;64.33;102034.72;6116664;28;20235;-63
2021/07/17 01:32:19;;;;;;;12.88;6.22;;;;;;;22.92;63.71;102039.41;6111423;28;20327;-63
2021/07/17 01:35:40;;;;;;;16.58;8.05;;;;;;;22.22;66.19;102043.94;6119377;28;20224;-63
2021/07/17 01:39:02;;;;;;;18.10;8.27;;;;;;;22.65;64.88;102040.53;6113453;28;20224;-64
2021/07/17 01:42:24;;;;;;;12.52;7.05;;;;;;;22.45;65.30;102044.84;6082680;28;20626;-63
2021/07/17 01:45:46;;;;;;;12.38;7.00;;;;;;;22.46;65.25;102046.56;6109825;28;20240;-62
2021/07/17 01:49:07;;;;;;;15.20;7.00;;;;;;;22.50;65.07;102045.53;6108630;28;20357;-62
2021/07/17 01:52:28;;;;;;;16.40;7.90;;;;;;;22.05;66.89;102049.00;6108898;28;20228;-63
2021/07/17 01:55:50;;;;;;;19.08;8.10;;;;;;;22.31;65.96;102047.16;6114280;28;20352;-64
2021/07/17 01:59:12;;;;;;;15.40;7.85;;;;;;;22.25;66.29;102042.09;6114944;28;20239;-63
2021/07/17 02:02:33;;;;;;;12.70;7.93;;;;;;;22.44;65.31;102036.94;6112475;28;20263;-63
2021/07/17 02:05:54;;;;;;;12.73;7.82;;;;;;;22.10;66.47;102044.41;6107522;28;20236;-62
2021/07/17 02:09:15;;;;;;;14.63;7.20;;;;;;;22.20;66.24;102048.44;6107223;28;20231;-63
2021/07/17 02:12:37;;;;;;;12.25;7.07;;;;;;;22.11;66.76;102053.22;6108467;28;20350;-63
2021/07/17 02:15:58;;;;;;;12.32;7.97;;;;;;;22.20;66.65;102044.91;6102573;28;20231;-62
2021/07/17 02:19:21;;;;;;;13.95;7.28;;;;;;;22.28;66.15;102042.00;6111129;28;20232;-62
2021/07/17 02:22:42;;;;;;;11.23;7.25;;;;;;;22.33;65.75;102040.00;6115013;28;20634;-64
2021/07/17 02:26:04;;;;;;;16.10;8.00;;;;;;;22.10;66.54;102032.91;6099343;28;20260;-62
2021/07/17 02:29:26;;;;;;;15.30;8.50;;;;;;;22.30;66.17;102041.00;6109894;28;20231;-61
2021/07/17 02:32:47;;;;;;;14.43;7.13;;;;;;;22.54;65.42;102036.50;6112278;28;20256;-62
2021/07/17 02:36:08;;;;;;;20.88;8.18;;;;;;;22.47;65.34;102032.38;6109658;28;20227;-62
2021/07/17 02:39:29;;;;;;;15.20;8.93;;;;;;;22.32;66.23;102038.31;6106537;28;20239;-62
2021/07/17 02:42:50;;;;;;;12.18;9.07;;;;;;;22.52;65.27;102038.34;6103410;28;20334;-62
2021/07/17 02:46:12;;;;;;;12.88;7.65;;;;;;;22.47;65.22;102048.31;6110569;28;20232;-62
2021/07/17 02:49:33;;;;;;;10.30;7.25;;;;;;;22.30;66.10;102042.81;6110374;28;20236;-62
2021/07/17 02:52:54;;;;;;;16.10;9.35;;;;;;;22.35;65.60;102038.16;6104245;28;20233;-62
2021/07/17 02:56:15;;;;;;;17.15;8.88;;;;;;;22.32;65.44;102043.59;6108450;28;20525;-62
2021/07/17 02:59:36;;;;;;;14.63;8.23;;;;;;;22.40;65.41;102047.69;6115723;28;20232;-63
2021/07/17 03:02:58;;;;;;;14.93;8.27;;;;;;;22.29;65.70;102041.91;6111024;28;20236;-63
2021/07/17 03:06:19;;;;;;;13.88;8.75;;;;;;;22.22;66.12;102043.94;6107150;28;20239;-63
2021/07/17 03:09:40;;;;;;;26.15;23.30;;;;;;;22.22;65.85;102049.22;6108996;28;20247;-62
2021/07/17 03:13:01;;;;;;;16.98;12.35;;;;;;;22.40;65.61;102052.97;6111416;28;20235;-62
2021/07/17 03:16:23;;;;;;;12.77;8.38;;;;;;;22.55;64.86;102051.53;6107687;28;20224;-63
2021/07/17 03:19:45;;;;;;;11.93;8.85;;;;;;;22.55;64.73;102046.22;6116509;28;20235;-64
2021/07/17 03:23:06;;;;;;;15.68;7.78;;;;;;;22.26;65.94;102055.31;6111813;28;20244;-62
2021/07/17 03:26:27;;;;;;;9.27;7.40;;;;;;;22.18;66.14;102063.53;6108998;28;20219;-62
2021/07/17 03:29:49;;;;;;;11.43;8.32;;;;;;;22.34;65.32;102063.84;6111835;28;20259;-63
2021/07/17 03:33:10;;;;;;;16.55;9.20;;;;;;;22.19;66.16;102069.72;6106010;28;20869;-62
2021/07/17 03:36:32;;;;;;;11.27;7.95;;;;;;;22.38;65.57;102067.25;6110892;28;20609;-63
2021/07/17 03:39:53;;;;;;;9.75;7.07;;;;;;;22.52;64.86;102062.25;6108283;28;20244;-63
2021/07/17 03:43:14;;;;;;;15.32;8.93;;;;;;;22.66;64.27;102064.34;6108296;28;20240;-62
2021/07/17 03:46:35;;;;;;;8.77;7.20;;;;;;;22.61;64.19;102064.53;6106099;28;20350;-63
2021/07/17 03:49:56;;;;;;;13.18;7.93;;;;;;;22.75;63.48;102053.38;6118227;28;20235;-62
2021/07/17 03:53:18;;;;;;;8.98;7.10;;;;;;;22.39;64.63;102063.66;6106958;28;20241;-63
2021/07/17 03:56:39;;;;;;;8.65;6.65;;;;;;;22.53;64.13;102066.66;6118503;28;20612;-63
2021/07/17 04:00:00;;;;;;;12.57;7.43;;;;;;;22.38;64.47;102064.59;6109686;28;20236;-63
2021/07/17 04:03:22;;;;;;;10.07;7.55;;;;;;;22.38;64.42;102062.78;6112232;28;20513;-62
2021/07/17 04:06:43;;;;;;;12.85;7.68;;;;;;;22.58;63.20;102069.97;6111912;28;20339;-62
2021/07/17 04:10:08;;;;;;;6.10;5.55;;;;;;;22.67;63.11;102070.53;6112100;28;20229;-62
2021/07/17 04:13:29;;;;;;;12.45;7.18;;;;;;;22.78;62.48;102068.31;6114156;28;20488;-62
2021/07/17 04:16:50;;;;;;;7.57;6.57;;;;;;;22.33;63.41;102066.53;6114846;28;20228;-63
2021/07/17 04:20:12;;;;;;;8.23;5.70;;;;;;;22.71;62.46;102062.38;6115046;28;20639;-63
2021/07/17 04:23:33;;;;;;;8.15;6.05;;;;;;;22.81;62.33;102070.84;6117390;28;20259;-62
2021/07/17 04:26:55;;;;;;;8.40;6.68;;;;;;;22.76;61.74;102064.84;6107090;28;20236;-62
2021/07/17 04:30:16;;;;;;;8.25;6.13;;;;;;;22.63;61.33;102074.25;6113722;28;20331;-62
2021/07/17 04:33:37;;;;;;;6.85;5.55;;;;;;;22.30;61.51;102074.66;6118567;28;20228;-63
2021/07/17 04:36:59;;;;;;;5.97;4.88;;;;;;;22.85;60.33;102074.25;6112216;28;20236;-64
2021/07/17 04:40:19;;;;;;;6.03;4.60;;;;;;;22.69;60.27;102081.97;6114366;28;20227;-62
2021/07/17 04:43:42;;;;;;;7.30;5.30;;;;;;;22.60;59.62;102085.84;6111261;28;20229;-62
2021/07/17 04:47:02;;;;;;;6.60;5.50;;;;;;;22.53;60.32;102085.22;6114407;28;20227;-63
2021/07/17 04:50:23;;;;;;;7.80;4.82;;;;;;;22.55;59.28;102086.03;6114622;28;20227;-63
2021/07/17 04:53:44;;;;;;;5.57;4.15;;;;;;;22.62;58.75;102086.63;6113420;28;20244;-63
2021/07/17 04:57:05;;;;;;;5.03;4.63;;;;;;;22.95;57.92;102081.78;6104637;28;20280;-63
2021/07/17 05:00:28;;;;;;;5.82;4.93;;;;;;;22.48;58.20;102087.19;6120434;28;20239;-63
2021/07/17 05:03:49;;;;;;;5.22;4.53;;;;;;;22.93;56.99;102093.38;6115637;28;20255;-63
2021/07/17 05:07:10;;;;;;;6.20;4.32;;;;;;;22.77;56.76;102095.78;6111091;28;20236;-63
2021/07/17 05:10:31;;;;;;;4.10;3.70;;;;;;;22.83;56.09;102084.91;6107914;28;20232;-62
2021/07/17 05:13:52;;;;;;;5.32;3.97;;;;;;;22.80;56.95;102083.25;6114732;28;20232;-63
2021/07/17 05:17:14;;;;;;;5.93;4.07;;;;;;;22.63;55.89;102085.72;6115944;28;20273;-63
2021/07/17 05:20:35;;;;;;;4.20;3.28;;;;;;;22.58;56.54;102093.84;6114684;28;20342;-62
2021/07/17 05:23:56;;;;;;;5.28;3.63;;;;;;;22.27;56.10;102102.13;6113024;28;20240;-62
2021/07/17 05:27:16;;;;;;;4.93;3.70;;;;;;;22.12;56.24;102103.56;6111679;28;20239;-62
2021/07/17 05:30:38;;;;;;;4.18;3.10;;;;;;;22.20;56.20;102109.44;6112944;28;20603;-63
2021/07/17 05:34:00;;;;;;;4.40;4.05;;;;;;;22.66;55.03;102106.81;6114917;28;20544;-62
2021/07/17 05:37:22;;;;;;;6.20;3.67;;;;;;;22.11;55.51;102117.75;6112342;28;20232;-63
2021/07/17 05:40:43;;;;;;;4.57;3.00;;;;;;;22.45;54.49;102113.88;6110546;28;20259;-63
2021/07/17 05:44:04;;;;;;;10.07;3.35;;;;;;;22.47;53.54;102116.44;6117488;28;20266;-63
2021/07/17 05:47:25;;;;;;;6.00;3.20;;;;;;;22.97;52.39;102125.09;6101639;28;20501;-61
2021/07/17 05:50:48;;;;;;;6.35;2.88;;;;;;;22.77;52.43;102125.00;6105194;28;20245;-62
2021/07/17 05:54:09;;;;;;;2.50;2.30;;;;;;;22.55;52.34;102127.66;6108061;28;20572;-63
2021/07/17 05:57:32;;;;;;;4.43;3.08;;;;;;;22.99;52.19;102136.50;6111119;28;20673;-61
2021/07/17 06:00:52;;;;;;;7.88;4.50;;;;;;;22.97;51.51;102133.06;6109370;28;20322;-61
2021/07/17 06:04:13;;;;;;;6.05;3.40;;;;;;;22.80;51.81;102140.81;6107889;28;20259;-61
2021/07/17 06:07:35;;;;;;;5.13;2.67;;;;;;;23.12;51.02;102141.34;6101331;28;20236;-61
2021/07/17 06:10:56;;;;;;;6.53;4.03;;;;;;;23.10;50.14;102148.50;6089586;28;20228;-62
2021/07/17 06:14:17;;;;;;;10.18;3.45;;;;;;;22.99;50.92;102143.59;6105296;28;20232;-62
2021/07/17 06:17:38;;;;;;;5.03;3.88;;;;;;;22.75;51.54;102141.00;6111029;28;20658;-62
2021/07/17 06:20:59;;;;;;;5.22;3.45;;;;;;;22.71;51.06;102150.00;6107181;28;20236;-61
2021/07/17 06:24:21;;;;;;;5.72;2.42;;;;;;;23.17;51.06;102150.00;6106437;28;20251;-62
2021/07/17 06:27:42;;;;;;;2.30;2.10;;;;;;;22.75;51.63;102151.63;6099569;28;20283;-61
2021/07/17 06:31:04;;;;;;;2.88;2.17;;;;;;;22.68;51.41;102152.78;6102118;28;20322;-62
2021/07/17 06:34:25;;;;;;;4.90;2.78;;;;;;;22.56;52.27;102161.22;6109372;28;20235;-60
2021/07/17 06:37:45;;;;;;;5.05;2.17;;;;;;;23.22;50.51;102163.94;6109610;28;20235;-61
2021/07/17 06:41:08;;;;;;;4.22;2.50;;;;;;;22.99;51.37;102157.75;6107986;28;20491;-62
2021/07/17 06:44:29;;;;;;;3.33;2.47;;;;;;;22.99;51.21;102159.53;6113511;28;20223;-61
2021/07/17 06:47:50;;;;;;;6.07;2.90;;;;;;;22.87;50.98;102155.56;6111409;28;20240;-62
2021/07/17 06:51:10;;;;;;;5.32;3.03;;;;;;;22.91;51.50;102153.66;6108210;28;20821;-63
2021/07/17 06:54:31;;;;;;;5.30;2.60;;;;;;;22.89;51.45;102156.38;6107021;28;20236;-61
2021/07/17 06:57:54;;;;;;;9.40;3.13;;;;;;;23.08;51.41;102150.38;6109616;28;20516;-61
2021/07/17 07:01:15;;;;;;;5.78;2.70;;;;;;;23.40;50.62;102146.38;6103254;28;20505;-62
2021/07/17 07:04:35;;;;;;;7.22;3.05;;;;;;;23.43;51.72;102146.25;6113423;28;20232;-62
2021/07/17 07:07:56;;;;;;;5.05;2.33;;;;;;;23.93;49.75;102150.34;6107651;28;20686;-62
2021/07/17 07:11:17;;;;;;;7.28;3.05;;;;;;;23.76;50.62;102153.72;6100182;28;20658;-62
2021/07/17 07:14:39;;;;;;;6.47;2.40;;;;;;;23.14;50.95;102152.78;6108346;28;20228;-61
2021/07/17 07:18:00;;;;;;;6.60;2.60;;;;;;;23.44;50.44;102152.41;6110264;28;20232;-61
2021/07/17 07:21:21;;;;;;;4.55;3.17;;;;;;;23.68;50.18;102154.03;6113567;28;20338;-62
2021/07/17 07:24:42;;;;;;;7.50;2.83;;;;;;;23.72;49.85;102152.97;6107970;28;20277;-61
2021/07/17 07:28:03;;;;;;;7.25;2.42;;;;;;;23.72;50.12;102155.63;6113058;28;20255;-61
2021/07/17 07:31:26;;;;;;;5.75;2.65;;;;;;;24.19;49.48;102157.16;6112781;28;20677;-61
2021/07/17 07:34:47;;;;;;;6.47;2.53;;;;;;;23.78;50.49;102155.38;6118607;28;20236;-61
2021/07/17 07:38:08;;;;;;;7.78;2.85;;;;;;;24.07;50.00;102163.03;6111778;28;20239;-63
2021/07/17 07:41:29;;;;;;;8.32;2.85;;;;;;;24.24;49.11;102156.97;6105407;28;20237;-62
2021/07/17 07:44:51;;;;;;;6.45;2.97;;;;;;;24.19;48.76;102157.16;6108186;28;20767;-60
2021/07/17 07:48:13;;;;;;;7.05;3.45;;;;;;;24.51;48.90;102157.50;6106287;28;20227;-55
2021/07/17 07:51:34;;;;;;;6.38;2.40;;;;;;;24.40;48.88;102157.97;6108780;28;20235;-61
2021/07/17 07:54:55;;;;;;;6.80;3.22;;;;;;;24.86;47.78;102150.50;6108787;28;20235;-62
2021/07/17 07:58:16;;;;;;;5.68;2.63;;;;;;;24.66;47.39;102151.47;6111166;28;20610;-62
2021/07/17 08:01:37;;;;;;;4.68;2.88;;;;;;;24.72;48.30;102148.50;6113420;28;20240;-62
2021/07/17 08:04:59;;;;;;;7.25;3.17;;;;;;;24.21;49.43;102149.09;6111660;28;20586;-60
2021/07/17 08:08:20;;;;;;;7.15;2.63;;;;;;;24.41;48.54;102162.38;6117127;28;20323;-62
2021/07/17 08:11:41;;;;;;;2.92;1.67;;;;;;;24.55;48.66;102159.94;6118449;28;20235;-62
2021/07/17 08:15:02;;;;;;;6.03;2.55;;;;;;;24.58;47.85;102160.75;6117102;28;20302;-62
2021/07/17 08:18:23;;;;;;;5.38;2.10;;;;;;;24.90;47.83;102154.75;6115074;28;20236;-62
2021/07/17 08:21:45;;;;;;;6.75;2.72;;;;;;;25.23;47.04;102143.41;6106368;28;20268;-61
2021/07/17 08:25:08;;;;;;;10.95;3.58;;;;;;;24.93;47.29;102143.94;6114116;28;20339;-61
2021/07/17 08:28:29;;;;;;;5.28;2.55;;;;;;;24.54;48.12;102150.25;6117179;28;20228;-63
2021/07/17 08:31:50;;;;;;;3.95;2.05;;;;;;;25.05;47.15;102152.28;6107939;28;20233;-62
2021/07/17 08:35:11;;;;;;;6.85;3.47;;;;;;;24.91;47.82;102155.59;6117979;28;20267;-61
2021/07/17 08:38:34;;;;;;;5.60;2.67;;;;;;;25.33;47.19;102147.31;6117971;28;20323;-61
2021/07/17 08:41:55;;;;;;;4.70;2.30;;;;;;;25.63;46.64;102146.72;6104039;28;20235;-62
2021/07/17 08:45:17;;;;;;;5.20;2.58;;;;;;;24.69;48.89;102153.13;6113428;28;20235;-62
2021/07/17 08:48:38;;;;;;;4.78;2.72;;;;;;;25.14;47.04;102149.16;6119109;28;20602;-62
2021/07/17 08:52:00;;;;;;;6.13;2.00;;;;;;;24.73;48.00;102149.38;6110422;28;20646;-61
2021/07/17 08:55:25;;;;;;;9.00;3.58;;;;;;;25.17;47.49;102140.16;6117045;28;20228;-61
2021/07/17 08:58:48;;;;;;;6.75;2.42;;;;;;;25.22;46.43;102149.69;6114589;28;20627;-63
2021/07/17 09:02:09;;;;;;;4.00;2.10;;;;;;;25.19;47.19;102147.13;6117507;28;20497;-62
2021/07/17 09:05:33;;;;;;;3.55;2.75;;;;;;;25.39;46.86;102151.47;6111649;28;20251;-62
2021/07/17 09:08:54;;;;;;;4.25;2.15;;;;;;;25.51;46.13;102156.22;6119146;28;20235;-62
2021/07/17 09:12:27;;;;;;;7.28;2.35;;;;;;;25.84;45.06;102147.41;6112817;28;20232;-63
2021/07/17 09:15:57;;;;;;;7.38;2.55;;;;;;;25.59;44.45;102146.94;6114269;28;20318;-62
2021/07/17 09:19:17;;;;;;;3.20;2.05;;;;;;;25.67;44.86;102150.94;6113084;28;20330;-61
2021/07/17 09:22:40;;;;;;;3.67;1.70;;;;;;;26.26;44.01;102147.88;6112289;28;20611;-62
2021/07/17 09:26:09;;;;;;;4.18;2.65;;;;;;;26.63;44.56;102141.38;6097653;28;20232;-61
2021/07/17 09:29:39;;;;;;;4.07;2.05;;;;;;;26.29;43.85;102148.56;6115008;28;20235;-63
2021/07/17 09:33:03;;;;;;;4.50;1.88;;;;;;;25.70;45.36;102152.59;6113654;28;20227;-61
2021/07/17 09:36:24;;;;;;;3.38;1.52;;;;;;;26.02;45.11;102148.25;6108510;28;20763;-62
2021/07/17 09:39:47;;;;;;;5.68;2.20;;;;;;;26.42;43.85;102142.56;6112637;28;20269;-62
2021/07/17 09:43:08;;;;;;;3.85;1.63;;;;;;;26.11;43.54;102141.56;6112723;28;20227;-61
2021/07/17 09:46:32;;;;;;;4.72;1.70;;;;;;;26.38;43.56;102139.19;6107774;28;20236;-62
2021/07/17 09:50:12;;;;;;;3.88;2.05;;;;;;;25.99;43.97;102140.41;6113101;28;20579;-62
2021/07/17 09:53:42;;;;;;;3.80;2.05;;;;;;;26.46;43.09;102144.97;6113481;28;20227;-63
2021/07/17 09:57:03;;;;;;;2.58;1.45;;;;;;;26.71;42.55;102132.94;6113365;28;20310;-62
2021/07/17 10:00:24;;;;;;;5.18;4.07;;;;;;;26.61;43.14;102143.28;6387875;23;20313;-61
2021/07/17 10:03:49;;;;;;;4.70;2.33;;;;;;;26.75;42.02;102134.47;6144707;28;20238;-61
2021/07/17 10:07:10;;;;;;;1.98;1.27;;;;;;;26.78;42.38;102131.66;6137378;28;20340;-61
2021/07/17 10:10:31;;;;;;;5.63;2.15;;;;;;;26.94;41.73;102136.97;6143114;28;20227;-61
2021/07/17 10:13:52;;;;;;;4.72;1.80;;;;;;;26.34;41.87;102129.63;6145936;28;20239;-62
2021/07/17 10:17:14;;;;;;;2.92;1.95;;;;;;;26.88;41.14;102129.31;6141081;28;20600;-62
2021/07/17 10:20:37;;;;;;;2.58;1.70;;;;;;;27.24;40.55;102137.03;6141172;28;20521;-63
2021/07/17 10:23:59;;;;;;;9.32;2.83;;;;;;;26.98;40.24;102145.69;6141331;28;20239;-62
2021/07/17 10:27:20;;;;;;;3.75;1.55;;;;;;;27.21;41.24;102128.31;6143980;28;20242;-62
2021/07/17 10:30:42;;;;;;;3.85;1.75;;;;;;;27.19;40.41;102119.50;6148798;28;20242;-61
2021/07/17 10:34:04;;;;;;;2.78;1.42;;;;;;;27.46;40.47;102125.91;6133572;28;20237;-62
2021/07/17 10:37:30;;;;;;;3.50;1.80;;;;;;;27.52;39.91;102124.69;6142634;28;20243;-62
2021/07/17 10:40:54;;;;;;;4.32;1.58;;;;;;;27.52;40.80;102123.84;6143657;28;20235;-61
2021/07/17 10:44:15;;;;;;;3.10;1.40;;;;;;;28.25;40.21;102129.16;6153545;28;20242;-62
2021/07/17 10:47:38;;;;;;;3.58;1.55;;;;;;;27.85;39.56;102123.59;6145481;28;20287;-62
2021/07/17 10:51:01;;;;;;;4.10;1.48;;;;;;;28.02;40.71;102128.78;6141466;28;20238;-62
2021/07/17 10:54:30;;;;;;;6.00;3.70;;;;;;;28.56;39.17;102121.88;6147410;28;20235;-61
2021/07/17 10:57:51;;;;;;;3.78;2.00;;;;;;;27.92;39.05;102121.41;6150673;28;20230;-61
2021/07/17 11:01:14;;;;;;;4.13;2.22;;;;;;;28.06;39.11;102114.25;6146535;28;20243;-61
2021/07/17 11:04:38;;;;;;;7.40;1.88;;;;;;;27.41;38.75;102111.09;6136471;28;20266;-60
2021/07/17 11:07:59;;;;;;;4.68;2.33;;;;;;;28.03;39.27;102119.81;6147414;28;20242;-61
2021/07/17 11:11:36;;;;;;;4.28;1.60;;;;;;;27.98;38.40;102111.19;6154353;28;20238;-61
2021/07/17 11:15:32;;;;;;;3.97;1.55;;;;;;;28.25;38.03;102103.25;6155083;28;20508;-60
2021/07/17 11:18:53;;;;;;;2.20;1.20;;;;;;;28.32;38.04;102106.38;6143102;28;20234;-63
2021/07/17 11:22:15;;;;;;;3.97;2.05;;;;;;;28.59;38.61;102108.28;6143647;28;20330;-62
2021/07/17 11:25:36;;;;;;;4.28;2.22;;;;;;;28.11;38.43;102105.06;6141373;28;20238;-62
2021/07/17 11:29:07;;;;;;;4.65;1.70;;;;;;;28.56;38.37;102116.53;6150223;28;20250;-61
2021/07/17 11:32:28;;;;;;;4.22;2.15;;;;;;;28.90;37.59;102108.94;6142580;28;20230;-62
2021/07/17 11:35:49;;;;;;;7.95;2.22;;;;;;;29.11;37.94;102102.13;6147251;28;20235;-61
2021/07/17 11:39:14;;;;;;;3.35;1.80;;;;;;;29.34;37.48;102111.31;6141458;28;20243;-61
2021/07/17 11:42:37;;;;;;;4.97;2.40;;;;;;;29.64;37.26;102103.00;6147176;28;20227;-62
2021/07/17 11:45:59;;;;;;;6.22;2.63;;;;;;;29.82;36.97;102100.00;6137219;28;20241;-61
2021/07/17 11:49:20;;;;;;;7.40;2.42;;;;;;;29.40;37.74;102085.91;6146944;28;20532;-62
2021/07/17 11:52:41;;;;;;;4.82;1.88;;;;;;;29.73;36.43;102097.97;6150923;28;20227;-63
2021/07/17 11:56:02;;;;;;;2.22;1.50;;;;;;;28.54;37.48;102096.97;6138803;28;20271;-62
2021/07/17 11:59:24;;;;;;;4.65;2.75;;;;;;;28.68;37.88;102091.59;6143415;28;20227;-62
2021/07/17 12:02:52;;;;;;;6.68;2.08;;;;;;;29.53;36.87;102092.13;6146881;28;20230;-62
2021/07/17 12:06:12;;;;;;;2.95;2.15;;;;;;;29.72;35.77;102088.16;6149970;28;20242;-61
2021/07/17 12:09:35;;;;;;;13.75;10.73;;;;;;;29.60;36.01;102093.44;6153178;28;20231;-61
2021/07/17 12:12:59;;;;;;;3.83;1.92;;;;;;;29.58;35.34;102092.66;6157982;28;20235;-61
2021/07/17 12:16:21;;;;;;;5.90;2.03;;;;;;;29.78;35.87;102085.09;6151752;28;20231;-61
2021/07/17 12:19:44;;;;;;;2.78;1.63;;;;;;;30.49;35.61;102091.59;6150049;28;20239;-62
2021/07/17 12:23:09;;;;;;;4.47;1.98;;;;;;;30.23;36.68;102088.97;6149833;28;20231;-62
2021/07/17 12:26:30;;;;;;;9.18;2.85;;;;;;;30.43;35.88;102086.69;6149543;28;20552;-62
2021/07/17 12:29:51;;;;;;;4.40;2.25;;;;;;;29.85;36.24;102075.63;6159027;28;20250;-62
2021/07/17 12:33:24;;;;;;;4.05;1.77;;;;;;;30.13;36.48;102079.03;6150085;28;20329;-61
2021/07/17 12:36:46;;;;;;;4.80;1.52;;;;;;;29.80;36.67;102062.53;6153005;28;20238;-60
2021/07/17 12:40:09;;;;;;;4.78;1.88;;;;;;;29.73;36.85;102082.72;6145554;28;20243;-62
2021/07/17 12:43:33;;;;;;;4.68;1.60;;;;;;;29.77;36.90;102064.56;6148217;28;20761;-61
2021/07/17 12:46:57;;;;;;;2.90;1.95;;;;;;;30.46;36.15;102066.78;6152701;28;20242;-62
2021/07/17 12:50:22;;;;;;;4.55;1.83;;;;;;;30.72;35.69;102059.47;6149515;28;20242;-62
2021/07/17 12:53:48;;;;;;;4.13;2.10;;;;;;;30.66;35.70;102063.47;6158923;28;20234;-62
2021/07/17 12:57:10;;;;;;;5.07;3.10;;;;;;;30.73;34.71;102063.84;6159069;28;20261;-61
2021/07/17 13:00:30;;;;;;;3.40;1.63;;;;;;;30.58;34.66;102064.06;6147110;28;20236;-51
2021/07/17 13:03:51;;;;;;;2.58;1.60;;;;;;;31.08;35.36;102061.22;6155669;28;20243;-50
2021/07/17 13:07:12;;;;;;;7.57;2.15;;;;;;;32.58;31.96;102061.03;6151077;28;20239;-52
2021/07/17 13:10:36;;;;;;;6.80;2.58;;;;;;;33.43;30.56;102060.09;6157134;28;21045;-49
2021/07/17 13:13:59;;;;;;;6.18;2.55;;;;;;;35.05;27.63;102057.25;6152430;28;20238;-52
2021/07/17 13:17:20;;;;;;;6.28;2.25;;;;;;;35.49;26.72;102048.59;6147603;28;20329;-49
2021/07/17 13:20:42;;;;;;;2.83;1.85;;;;;;;36.14;25.62;102045.00;6140667;28;20320;-51
2021/07/17 13:24:05;;;;;;;3.05;1.85;;;;;;;37.63;23.35;102062.41;6154214;28;20227;-51
2021/07/17 13:27:28;;;;;;;2.97;1.85;;;;;;;37.86;23.54;102054.53;6152427;28;20695;-51
2021/07/17 13:30:49;;;;;;;5.30;2.08;;;;;;;36.52;23.59;102052.03;6152509;28;20599;-54
2021/07/17 13:34:12;;;;;;;7.82;1.77;;;;;;;37.20;24.20;102042.44;6146744;28;20223;-55
2021/07/17 13:37:33;;;;;;;3.90;1.83;;;;;;;36.64;24.81;102049.94;6150672;28;20641;-49
2021/07/17 13:40:56;;;;;;;3.40;1.92;;;;;;;35.81;25.35;102037.38;6147988;28;20243;-51
2021/07/17 13:44:18;;;;;;;2.90;1.45;;;;;;;36.55;24.29;102040.88;6146481;28;20238;-50
2021/07/17 13:47:43;;;;;;;2.88;1.73;;;;;;;35.49;26.22;102046.72;6148401;28;20336;-49
2021/07/17 13:51:07;;;;;;;3.67;2.17;;;;;;;36.29;25.24;102042.66;6144503;28;20223;-49
2021/07/17 13:54:28;;;;;;;3.33;1.70;;;;;;;35.49;25.93;102035.91;6153246;28;20226;-50
2021/07/17 13:57:49;;;;;;;4.68;1.90;;;;;;;35.16;26.72;102047.25;6146470;28;20251;-52
2021/07/17 14:01:19;;;;;;;3.88;1.42;;;;;;;34.26;28.49;102041.97;6147434;28;20539;-54
2021/07/17 14:04:40;;;;;;;3.83;1.40;;;;;;;33.94;28.67;102048.41;6148573;28;20663;-51
2021/07/17 14:08:01;;;;;;;2.88;1.80;;;;;;;34.01;28.99;102054.13;6150698;28;20584;-50
2021/07/17 14:11:23;;;;;;;3.83;1.38;;;;;;;33.57;29.35;102045.38;6148710;28;20246;-53
2021/07/17 14:14:44;;;;;;;7.95;2.20;;;;;;;32.73;31.09;102045.41;6144972;28;20231;-53
2021/07/17 14:18:06;;;;;;;7.68;2.13;;;;;;;32.37;31.91;102034.81;6146180;28;20251;-52
2021/07/17 14:21:27;;;;;;;4.20;1.80;;;;;;;33.08;31.14;102039.69;6147475;28;20227;-53
2021/07/17 14:24:49;;;;;;;7.00;2.63;;;;;;;32.52;31.38;102034.53;6131656;28;20235;-55
2021/07/17 14:28:11;;;;;;;5.90;2.05;;;;;;;32.47;31.86;102039.47;6148291;28;20337;-51
2021/07/17 14:31:34;;;;;;;3.88;2.08;;;;;;;32.26;31.67;102034.00;6137005;28;20314;-49
2021/07/17 14:34:56;;;;;;;3.65;2.13;;;;;;;32.91;31.23;102035.72;6145929;28;20249;-51
2021/07/17 14:38:18;;;;;;;3.65;1.95;;;;;;;32.65;31.12;102035.25;6147490;28;20234;-52
2021/07/17 14:41:39;;;;;;;2.85;1.83;;;;;;;32.33;32.04;102030.66;6146288;28;20317;-54
2021/07/17 14:45:00;;;;;;;3.55;1.52;;;;;;;32.34;32.27;102021.63;6146746;28;20500;-49
2021/07/17 14:48:20;;;;;;;10.18;2.97;;;;;;;31.55;33.80;102027.09;6152872;28;20235;-52
2021/07/17 14:51:43;;;;;;;3.60;1.88;;;;;;;31.87;33.39;102015.53;6142178;28;20392;-51
2021/07/17 14:55:06;;;;;;;4.55;1.90;;;;;;;31.86;33.08;102013.00;6149530;28;20233;-51
2021/07/17 14:58:27;;;;;;;4.45;2.00;;;;;;;31.33;34.37;102018.94;6140282;28;20231;-51
2021/07/17 15:01:48;;;;;;;4.03;1.92;;;;;;;31.23;34.26;102017.97;6146801;28;20235;-50
2021/07/17 15:05:10;;;;;;;6.45;2.05;;;;;;;30.89;34.84;102023.25;6142875;28;20731;-54
2021/07/17 15:08:32;;;;;;;4.22;2.13;;;;;;;31.25;35.25;102038.38;6147285;28;20361;-48
2021/07/17 15:11:53;;;;;;;5.75;2.65;;;;;;;31.47;34.50;102029.53;6146522;28;20231;-54
2021/07/17 15:15:14;;;;;;;4.00;2.15;;;;;;;31.12;34.74;102027.75;6146802;28;20227;-52
2021/07/17 15:18:35;;;;;;;6.25;1.90;;;;;;;31.35;34.39;102015.19;6143966;28;20254;-52
2021/07/17 15:21:56;;;;;;;4.80;2.53;;;;;;;31.51;34.38;102022.06;6148073;28;20226;-49
2021/07/17 15:25:18;;;;;;;9.35;3.55;;;;;;;31.84;33.90;102023.03;6140064;28;20242;-52
2021/07/17 15:28:40;;;;;;;4.47;2.03;;;;;;;31.97;34.04;102021.91;6145567;28;20230;-54
2021/07/17 15:32:01;;;;;;;7.22;2.55;;;;;;;31.51;34.39;102022.06;6139171;28;20345;-53
2021/07/17 15:35:23;;;;;;;8.80;5.07;;;;;;;31.38;34.57;102024.84;6148877;28;20708;-48